Time;durP1;ratioP1;P1;durP2;ratioP2;P2;SDS_P1;SDS_P2;PMS_P1;PMS_P2;Temp;Humidity;BMP_temperature;BMP_pressure;BME280_temperature;BME280_humidity;BME280_pressure;Samples;Min_cycle;Max_cycle;Signal;HPM_P1;HPM_P2
2023/03/02 00:01:02;;;;;;;37.47;23.83;;;;;;;;;;4933138;29;20446;-88
2023/03/02 00:03:28;;;;;;;40.22;25.38;;;;;;;;;;4918922;29;20962;-85
2023/03/02 00:05:56;;;;;;;40.38;24.88;;;;;;;;;;4918241;29;20435;-87
2023/03/02 00:08:26;;;;;;;41.17;25.98;;;;;;;;;;4934774;29;20556;-88
2023/03/02 00:10:53;;;;;;;39.58;25.52;;;;;;;;;;4919380;29;20422;-87
2023/03/02 00:13:22;;;;;;;44.03;27.10;;;;;;;;;;4918871;29;20439;-88
2023/03/02 00:15:48;;;;;;;42.40;26.80;;;;;;;;;;4934071;29;20473;-88
2023/03/02 00:18:14;;;;;;;44.28;26.38;;;;;;;;;;4913225;29;20472;-88
2023/03/02 00:20:40;;;;;;;40.33;25.92;;;;;;;;;;4918228;29;20712;-88
2023/03/02 00:23:06;;;;;;;43.97;27.37;;;;;;;;;;4934307;29;20427;-89
2023/03/02 00:25:32;;;;;;;43.40;26.83;;;;;;;;;;4908139;29;20435;-88
2023/03/02 00:27:58;;;;;;;47.38;27.65;;;;;;;;;;4916230;29;20413;-87
2023/03/02 00:30:25;;;;;;;44.50;26.73;;;;;;;;;;4907471;29;20469;-88
2023/03/02 00:32:51;;;;;;;42.05;26.30;;;;;;;;;;4916570;29;20822;-88
2023/03/02 00:35:17;;;;;;;42.53;26.48;;;;;;;;;;4919073;29;20434;-88
2023/03/02 00:37:43;;;;;;;42.20;25.65;;;;;;;;;;4920918;29;20467;-88
2023/03/02 00:40:10;;;;;;;42.67;26.25;;;;;;;;;;4921027;29;20443;-89
2023/03/02 00:42:38;;;;;;;44.45;26.80;;;;;;;;;;4919601;29;20433;-89
2023/03/02 00:45:05;;;;;;;43.20;27.15;;;;;;;;;;4923649;29;20429;-88
2023/03/02 00:47:36;;;;;;;43.58;27.08;;;;;;;;;;4917196;29;20446;-88
2023/03/02 00:50:02;;;;;;;44.33;27.37;;;;;;;;;;4924148;29;20488;-88
2023/03/02 00:52:29;;;;;;;46.03;27.92;;;;;;;;;;4940058;29;20907;-88
2023/03/02 00:54:55;;;;;;;47.35;28.67;;;;;;;;;;4918351;29;20445;-86
2023/03/02 00:57:21;;;;;;;47.28;27.17;;;;;;;;;;4908782;29;20425;-86
2023/03/02 00:59:47;;;;;;;47.40;28.42;;;;;;;;;;4904370;29;20477;-87
2023/03/02 01:02:15;;;;;;;48.78;28.67;;;;;;;;;;4905191;29;20455;-87
2023/03/02 01:04:43;;;;;;;49.33;28.40;;;;;;;;;;4919234;29;20564;-87
2023/03/02 01:07:11;;;;;;;51.40;28.85;;;;;;;;;;4919315;29;20506;-87
2023/03/02 01:09:38;;;;;;;50.75;29.10;;;;;;;;;;4919423;29;20415;-86
2023/03/02 01:12:08;;;;;;;50.22;29.80;;;;;;;;;;4914769;29;20437;-86
2023/03/02 01:14:34;;;;;;;49.78;28.95;;;;;;;;;;4916235;29;20431;-87
2023/03/02 01:17:00;;;;;;;48.75;28.58;;;;;;;;;;4916865;29;20511;-86
2023/03/02 01:19:26;;;;;;;47.65;27.33;;;;;;;;;;4918445;29;20408;-88
2023/03/02 01:21:53;;;;;;;49.55;28.30;;;;;;;;;;4917305;29;20408;-87
2023/03/02 01:24:19;;;;;;;48.08;27.50;;;;;;;;;;4915097;29;20421;-87
2023/03/02 01:26:45;;;;;;;49.45;28.05;;;;;;;;;;4927753;29;20427;-87
2023/03/02 01:29:11;;;;;;;51.63;30.33;;;;;;;;;;4916790;29;20425;-87
2023/03/02 01:31:37;;;;;;;49.47;28.40;;;;;;;;;;4918562;29;20759;-87
2023/03/02 01:34:04;;;;;;;47.63;28.33;;;;;;;;;;4917942;29;20418;-88
2023/03/02 01:36:30;;;;;;;49.20;28.27;;;;;;;;;;4917996;29;20419;-88
2023/03/02 01:38:56;;;;;;;49.45;28.33;;;;;;;;;;4916855;29;20427;-87
2023/03/02 01:41:22;;;;;;;50.13;28.98;;;;;;;;;;4912525;29;20440;-88
2023/03/02 01:43:48;;;;;;;50.70;27.87;;;;;;;;;;4914669;29;20431;-87
2023/03/02 01:46:17;;;;;;;47.92;28.08;;;;;;;;;;4917516;29;20431;-87
2023/03/02 01:48:49;;;;;;;49.47;28.80;;;;;;;;;;4917332;29;20419;-87
2023/03/02 01:51:17;;;;;;;49.97;28.90;;;;;;;;;;4916105;29;20476;-87
2023/03/02 01:53:45;;;;;;;49.42;28.55;;;;;;;;;;4917830;29;20478;-87
2023/03/02 01:56:19;;;;;;;63.60;31.58;;;;;;;;;;4917330;29;20421;-87
2023/03/02 01:58:47;;;;;;;55.33;30.15;;;;;;;;;;4923689;29;20431;-87
2023/03/02 02:01:16;;;;;;;56.42;31.15;;;;;;;;;;4930714;29;20427;-87
2023/03/02 02:03:43;;;;;;;55.45;30.75;;;;;;;;;;4912225;29;20922;-88
2023/03/02 02:06:10;;;;;;;50.97;28.52;;;;;;;;;;4922584;29;20941;-87
2023/03/02 02:08:36;;;;;;;54.22;29.88;;;;;;;;;;4916668;29;20426;-87
2023/03/02 02:11:03;;;;;;;54.83;29.58;;;;;;;;;;4916559;29;20483;-87
2023/03/02 02:13:29;;;;;;;53.05;29.95;;;;;;;;;;4932787;29;20423;-87
2023/03/02 02:15:55;;;;;;;54.38;28.83;;;;;;;;;;4915440;29;20516;-87
2023/03/02 02:18:21;;;;;;;50.57;29.07;;;;;;;;;;4914212;29;20427;-87
2023/03/02 02:20:48;;;;;;;55.35;29.27;;;;;;;;;;4930975;29;20439;-87
2023/03/02 02:23:25;;;;;;;53.78;28.58;;;;;;;;;;4915423;29;20425;-86
2023/03/02 02:25:57;;;;;;;57.22;29.95;;;;;;;;;;4913955;29;20508;-87
2023/03/02 02:28:29;;;;;;;54.90;28.55;;;;;;;;;;4908417;29;20587;-87
2023/03/02 02:31:15;;;;;;;59.58;29.25;;;;;;;;;;4916410;29;20931;-86
2023/03/02 02:33:43;;;;;;;62.13;30.42;;;;;;;;;;4915899;29;20755;-88
2023/03/02 02:36:12;;;;;;;65.78;31.60;;;;;;;;;;4917048;29;20424;-87
2023/03/02 02:38:39;;;;;;;61.90;31.40;;;;;;;;;;4917271;29;20659;-87
2023/03/02 02:41:06;;;;;;;66.13;32.35;;;;;;;;;;4911269;29;20437;-87
2023/03/02 02:43:33;;;;;;;67.72;32.20;;;;;;;;;;4901067;29;20423;-87
2023/03/02 02:45:59;;;;;;;65.45;30.48;;;;;;;;;;4916579;29;20849;-87
2023/03/02 02:48:29;;;;;;;64.68;30.67;;;;;;;;;;4915881;29;20489;-87
2023/03/02 02:50:59;;;;;;;63.30;31.92;;;;;;;;;;4915017;29;20485;-86
2023/03/02 02:53:42;;;;;;;68.85;31.27;;;;;;;;;;4932569;29;20527;-87
2023/03/02 02:56:09;;;;;;;66.03;31.85;;;;;;;;;;4925526;29;20446;-86
2023/03/02 02:58:36;;;;;;;59.30;29.60;;;;;;;;;;4915164;29;20516;-87
2023/03/02 03:01:02;;;;;;;65.65;30.40;;;;;;;;;;4913377;29;20433;-87
2023/03/02 03:03:38;;;;;;;57.42;30.05;;;;;;;;;;4907153;29;20981;-87
2023/03/02 03:06:13;;;;;;;58.85;30.70;;;;;;;;;;4916531;29;20441;-87
2023/03/02 03:08:45;;;;;;;61.05;30.10;;;;;;;;;;4911736;29;20436;-87
2023/03/02 03:11:22;;;;;;;58.38;29.30;;;;;;;;;;4917291;29;20474;-87
2023/03/02 03:13:49;;;;;;;63.42;32.03;;;;;;;;;;4931321;29;20461;-87
2023/03/02 03:16:17;;;;;;;65.78;31.98;;;;;;;;;;4914728;29;20470;-88
2023/03/02 03:18:44;;;;;;;59.83;30.40;;;;;;;;;;4910573;29;20437;-88
2023/03/02 03:21:10;;;;;;;63.65;31.02;;;;;;;;;;4916407;29;20436;-87
2023/03/02 03:23:37;;;;;;;59.95;30.60;;;;;;;;;;4912079;29;20463;-87
2023/03/02 03:26:06;;;;;;;61.63;30.55;;;;;;;;;;4935178;29;20510;-87
2023/03/02 03:28:34;;;;;;;56.08;28.83;;;;;;;;;;4917004;29;20416;-88
2023/03/02 03:31:00;;;;;;;60.58;29.83;;;;;;;;;;4915815;29;20433;-88
2023/03/02 03:33:27;;;;;;;58.28;29.42;;;;;;;;;;4911035;29;20537;-87
2023/03/02 03:35:53;;;;;;;60.20;29.23;;;;;;;;;;4920109;29;21024;-87
2023/03/02 03:38:21;;;;;;;60.85;28.00;;;;;;;;;;4918130;29;20777;-87
2023/03/02 03:40:47;;;;;;;53.22;27.67;;;;;;;;;;4934078;29;21023;-87
2023/03/02 03:43:14;;;;;;;52.30;27.55;;;;;;;;;;4915593;29;20929;-88
2023/03/02 03:45:40;;;;;;;55.97;26.63;;;;;;;;;;4916245;29;20891;-88
2023/03/02 03:48:08;;;;;;;61.20;29.80;;;;;;;;;;4911917;29;20429;-88
2023/03/02 03:50:34;;;;;;;61.40;29.80;;;;;;;;;;4920392;29;20436;-87
2023/03/02 03:53:00;;;;;;;55.03;28.58;;;;;;;;;;4919363;29;20792;-87
2023/03/02 03:55:27;;;;;;;56.88;28.98;;;;;;;;;;4922932;29;20431;-87
2023/03/02 03:57:54;;;;;;;53.93;27.87;;;;;;;;;;4918149;29;20471;-88
2023/03/02 04:00:23;;;;;;;59.90;28.38;;;;;;;;;;4934993;29;20494;-88
2023/03/02 04:02:49;;;;;;;53.00;26.83;;;;;;;;;;4935740;29;20471;-88
2023/03/02 04:05:16;;;;;;;59.47;27.90;;;;;;;;;;4917804;29;20487;-88
2023/03/02 04:07:42;;;;;;;58.72;27.08;;;;;;;;;;4919838;29;20451;-88
2023/03/02 04:10:08;;;;;;;56.35;27.95;;;;;;;;;;4918603;29;20423;-88
2023/03/02 04:12:36;;;;;;;52.95;27.48;;;;;;;;;;4906558;29;20786;-89
2023/03/02 04:15:03;;;;;;;55.95;27.63;;;;;;;;;;4906391;29;20874;-88
2023/03/02 04:17:31;;;;;;;60.17;29.37;;;;;;;;;;4928109;29;21407;-88
2023/03/02 04:19:58;;;;;;;64.00;29.75;;;;;;;;;;4935147;29;20447;-87
2023/03/02 04:22:24;;;;;;;63.67;28.65;;;;;;;;;;4914876;29;20440;-88
2023/03/02 04:24:51;;;;;;;68.93;29.40;;;;;;;;;;4911273;29;20496;-88
2023/03/02 04:27:17;;;;;;;81.57;30.60;;;;;;;;;;4917765;29;20423;-88
2023/03/02 04:29:44;;;;;;;69.97;30.73;;;;;;;;;;4917139;29;20442;-88
2023/03/02 04:32:13;;;;;;;64.18;29.55;;;;;;;;;;4915163;29;20436;-88
2023/03/02 04:34:39;;;;;;;68.25;30.70;;;;;;;;;;4912218;29;20463;-88
2023/03/02 04:37:06;;;;;;;69.38;30.80;;;;;;;;;;4915110;29;20422;-88
2023/03/02 04:39:35;;;;;;;89.43;32.88;;;;;;;;;;4917523;29;20427;-88
2023/03/02 04:42:01;;;;;;;63.83;31.42;;;;;;;;;;4903503;29;20418;-87
2023/03/02 04:44:27;;;;;;;66.07;30.52;;;;;;;;;;4919057;29;20408;-87
2023/03/02 04:46:53;;;;;;;64.13;31.20;;;;;;;;;;4915549;29;20480;-86
2023/03/02 04:49:19;;;;;;;73.03;32.22;;;;;;;;;;4912747;29;20433;-88
2023/03/02 04:51:46;;;;;;;64.13;31.00;;;;;;;;;;4903057;29;20494;-88
2023/03/02 04:54:14;;;;;;;69.13;32.13;;;;;;;;;;4916411;29;20438;-88
2023/03/02 04:56:41;;;;;;;66.20;31.00;;;;;;;;;;4919723;29;20427;-88
2023/03/02 04:59:07;;;;;;;92.63;33.42;;;;;;;;;;4919830;29;20427;-87
2023/03/02 05:01:33;;;;;;;115.88;35.55;;;;;;;;;;4902020;29;20786;-88
2023/03/02 05:03:59;;;;;;;85.30;33.90;;;;;;;;;;4913709;29;20431;-88
2023/03/02 05:06:25;;;;;;;106.00;33.60;;;;;;;;;;4917229;29;20425;-88
2023/03/02 05:08:53;;;;;;;138.70;38.75;;;;;;;;;;4906834;29;20778;-88
2023/03/02 05:11:28;;;;;;;98.72;34.78;;;;;;;;;;4928229;29;20435;-88
2023/03/02 05:13:56;;;;;;;104.57;34.88;;;;;;;;;;4919053;29;20460;-87
2023/03/02 05:16:22;;;;;;;144.73;38.37;;;;;;;;;;4915254;29;20439;-87
2023/03/02 05:18:48;;;;;;;147.88;36.10;;;;;;;;;;4916008;29;20437;-89
2023/03/02 05:21:15;;;;;;;142.73;39.75;;;;;;;;;;4918978;29;20931;-88
2023/03/02 05:23:42;;;;;;;163.02;37.65;;;;;;;;;;4925356;29;20434;-87
2023/03/02 05:26:08;;;;;;;120.05;36.97;;;;;;;;;;4918868;29;20423;-88
2023/03/02 05:28:34;;;;;;;122.32;37.80;;;;;;;;;;4934234;29;20411;-88
2023/03/02 05:31:01;;;;;;;132.38;38.58;;;;;;;;;;4915421;29;20416;-88
2023/03/02 05:33:27;;;;;;;114.15;37.28;;;;;;;;;;4906536;29;20483;-89
2023/03/02 05:35:54;;;;;;;118.68;38.17;;;;;;;;;;4917156;29;20431;-88
2023/03/02 05:38:20;;;;;;;137.35;39.72;;;;;;;;;;4918410;29;20416;-88
2023/03/02 05:40:47;;;;;;;167.07;42.38;;;;;;;;;;4917773;29;20446;-87
2023/03/02 05:43:18;;;;;;;134.57;42.80;;;;;;;;;;4933659;29;20925;-89
2023/03/02 05:45:45;;;;;;;169.50;44.33;;;;;;;;;;4916009;29;20773;-88
2023/03/02 05:48:12;;;;;;;130.57;41.58;;;;;;;;;;4917274;29;20442;-88
2023/03/02 05:50:39;;;;;;;140.25;43.15;;;;;;;;;;4917687;29;20768;-88
2023/03/02 05:53:05;;;;;;;251.30;49.72;;;;;;;;;;4917821;29;20473;-88
2023/03/02 05:55:35;;;;;;;243.67;48.00;;;;;;;;;;4917052;29;20457;-88
2023/03/02 05:58:02;;;;;;;267.45;49.75;;;;;;;;;;4914639;29;20517;-89
2023/03/02 06:00:28;;;;;;;287.75;49.22;;;;;;;;;;4913581;29;20435;-89
2023/03/02 06:02:55;;;;;;;302.00;49.40;;;;;;;;;;4919678;29;20404;-88
2023/03/02 06:05:23;;;;;;;317.65;52.10;;;;;;;;;;4934589;29;20420;-88
2023/03/02 06:07:49;;;;;;;226.23;46.58;;;;;;;;;;4919307;29;20443;-87
2023/03/02 06:10:15;;;;;;;242.15;46.95;;;;;;;;;;4934640;29;20554;-87
2023/03/02 06:12:41;;;;;;;285.27;47.85;;;;;;;;;;4906419;29;20421;-87
2023/03/02 06:15:09;;;;;;;242.68;43.67;;;;;;;;;;4920247;29;20438;-85
2023/03/02 06:17:35;;;;;;;208.68;41.10;;;;;;;;;;4919133;29;20435;-86
2023/03/02 06:20:01;;;;;;;216.38;40.75;;;;;;;;;;4916757;29;20472;-84
2023/03/02 06:22:27;;;;;;;210.70;40.97;;;;;;;;;;4905606;29;20539;-86
2023/03/02 06:24:56;;;;;;;172.07;38.95;;;;;;;;;;4904094;29;20960;-86
2023/03/02 06:27:22;;;;;;;234.20;41.50;;;;;;;;;;4934702;29;20431;-86
2023/03/02 06:29:48;;;;;;;237.50;42.67;;;;;;;;;;4908419;29;20913;-85
2023/03/02 06:32:14;;;;;;;241.75;44.00;;;;;;;;;;4935474;29;20915;-86
2023/03/02 06:34:41;;;;;;;271.87;44.77;;;;;;;;;;4918265;29;20479;-86
2023/03/02 06:37:07;;;;;;;375.45;51.55;;;;;;;;;;4935595;29;20419;-86
2023/03/02 06:39:33;;;;;;;737.77;80.13;;;;;;;;;;4918433;29;20415;-78
2023/03/02 06:41:59;;;;;;;465.05;54.58;;;;;;;;;;4927476;29;20917;-87
2023/03/02 06:44:25;;;;;;;298.27;43.78;;;;;;;;;;4903107;29;20902;-86
2023/03/02 06:46:51;;;;;;;270.08;41.65;;;;;;;;;;4904960;29;20423;-87
2023/03/02 06:49:17;;;;;;;238.60;38.13;;;;;;;;;;4936008;29;20414;-85
2023/03/02 06:51:43;;;;;;;255.52;40.03;;;;;;;;;;4932548;29;20466;-88
2023/03/02 06:54:10;;;;;;;245.40;38.10;;;;;;;;;;4930238;29;20424;-86
2023/03/02 06:56:36;;;;;;;348.83;44.33;;;;;;;;;;4918902;29;20580;-87
2023/03/02 06:59:02;;;;;;;208.52;37.58;;;;;;;;;;4935767;29;20520;-87
2023/03/02 07:01:34;;;;;;;181.57;35.75;;;;;;;;;;4919042;29;20439;-87
2023/03/02 07:04:01;;;;;;;223.93;37.13;;;;;;;;;;4919706;29;20507;-88
2023/03/02 07:06:27;;;;;;;241.40;37.30;;;;;;;;;;4917982;29;20479;-88
2023/03/02 07:08:53;;;;;;;193.63;35.92;;;;;;;;;;4917414;29;20524;-87
2023/03/02 07:11:21;;;;;;;318.20;42.15;;;;;;;;;;4916193;29;20953;-86
2023/03/02 07:13:48;;;;;;;332.90;44.33;;;;;;;;;;4929961;29;20437;-87
2023/03/02 07:16:15;;;;;;;227.95;38.40;;;;;;;;;;4935681;29;20795;-89
2023/03/02 07:18:41;;;;;;;232.25;38.40;;;;;;;;;;4918789;29;20804;-90
2023/03/02 07:21:07;;;;;;;302.20;44.00;;;;;;;;;;4929173;29;20461;-89
2023/03/02 07:23:33;;;;;;;241.63;40.70;;;;;;;;;;4917493;29;20431;-90
2023/03/02 07:25:59;;;;;;;173.35;37.42;;;;;;;;;;4918932;29;20428;-89
2023/03/02 07:28:26;;;;;;;277.77;41.33;;;;;;;;;;4919312;29;20438;-88
2023/03/02 07:30:52;;;;;;;230.43;39.10;;;;;;;;;;4924874;29;20439;-90
2023/03/02 07:33:19;;;;;;;196.68;40.03;;;;;;;;;;4910080;29;20515;-90
2023/03/02 07:35:48;;;;;;;130.75;35.60;;;;;;;;;;4904045;29;20439;-91
2023/03/02 07:38:14;;;;;;;179.85;38.67;;;;;;;;;;4908976;29;20413;-90
2023/03/02 07:40:41;;;;;;;210.60;38.72;;;;;;;;;;4902356;29;20465;-88
2023/03/02 07:43:08;;;;;;;165.90;35.78;;;;;;;;;;4916541;29;20419;-88
2023/03/02 07:45:34;;;;;;;155.38;35.80;;;;;;;;;;4912930;29;20432;-86
2023/03/02 07:48:00;;;;;;;156.40;36.10;;;;;;;;;;4919431;29;20462;-88
2023/03/02 07:50:26;;;;;;;197.70;38.50;;;;;;;;;;4894364;29;20446;-88
2023/03/02 07:52:52;;;;;;;188.45;37.20;;;;;;;;;;4915616;29;20435;-87
2023/03/02 07:55:18;;;;;;;158.55;34.25;;;;;;;;;;4905132;29;20436;-79
2023/03/02 07:57:44;;;;;;;189.38;36.15;;;;;;;;;;4929996;29;20433;-79
2023/03/02 08:00:10;;;;;;;167.10;35.40;;;;;;;;;;4908835;29;20433;-79
2023/03/02 08:02:36;;;;;;;157.38;35.20;;;;;;;;;;4912714;29;20440;-79
2023/03/02 08:05:03;;;;;;;129.65;34.63;;;;;;;;;;4926676;29;20432;-79
2023/03/02 08:07:29;;;;;;;137.38;35.45;;;;;;;;;;4929752;29;21034;-80
2023/03/02 08:09:56;;;;;;;107.50;35.40;;;;;;;;;;4925735;29;20427;-78
2023/03/02 08:12:23;;;;;;;101.87;34.77;;;;;;;;;;4931597;29;20544;-78
2023/03/02 08:14:49;;;;;;;147.50;36.05;;;;;;;;;;4930696;29;20930;-77
2023/03/02 08:17:15;;;;;;;113.75;32.60;;;;;;;;;;4927513;29;20474;-77
2023/03/02 08:19:41;;;;;;;148.82;37.88;;;;;;;;;;4931951;29;20431;-77
2023/03/02 08:22:07;;;;;;;132.97;36.40;;;;;;;;;;4930336;29;20431;-78
2023/03/02 08:24:33;;;;;;;111.95;35.20;;;;;;;;;;4913866;29;20443;-78
2023/03/02 08:27:00;;;;;;;98.68;33.28;;;;;;;;;;4932888;29;20978;-78
2023/03/02 08:29:27;;;;;;;115.38;44.60;;;;;;;;;;4915265;29;20431;-78
2023/03/02 08:31:53;;;;;;;87.77;34.53;;;;;;;;;;4932124;29;20423;-76
2023/03/02 08:34:19;;;;;;;104.88;34.30;;;;;;;;;;4931852;29;20423;-77
2023/03/02 08:36:45;;;;;;;68.32;31.02;;;;;;;;;;4915765;29;20536;-77
2023/03/02 08:39:11;;;;;;;188.60;38.47;;;;;;;;;;4918375;29;20820;-77
2023/03/02 08:41:37;;;;;;;357.10;48.78;;;;;;;;;;4898468;29;20586;-76
2023/03/02 08:44:03;;;;;;;82.43;29.77;;;;;;;;;;4932201;29;20454;-76
2023/03/02 08:46:30;;;;;;;64.75;27.33;;;;;;;;;;4917491;29;20416;-77
2023/03/02 08:48:56;;;;;;;82.53;28.20;;;;;;;;;;4933208;29;20431;-78
2023/03/02 08:51:23;;;;;;;79.07;29.73;;;;;;;;;;4933702;29;20415;-80
2023/03/02 08:53:50;;;;;;;164.40;34.90;;;;;;;;;;4915711;29;20512;-79
2023/03/02 08:56:18;;;;;;;150.77;31.90;;;;;;;;;;4933065;29;20441;-78
2023/03/02 08:58:44;;;;;;;64.68;29.15;;;;;;;;;;4933636;29;20419;-80
2023/03/02 09:01:14;;;;;;;57.33;28.33;;;;;;;;;;4932232;29;20559;-82
2023/03/02 09:03:40;;;;;;;84.43;31.92;;;;;;;;;;4914045;29;20494;-83
2023/03/02 09:06:06;;;;;;;99.78;30.52;;;;;;;;;;4899432;29;20454;-82
2023/03/02 09:08:32;;;;;;;70.22;28.83;;;;;;;;;;4897397;29;20519;-82
2023/03/02 09:10:58;;;;;;;57.67;28.73;;;;;;;;;;4905061;29;20462;-83
2023/03/02 09:13:24;;;;;;;61.83;27.98;;;;;;;;;;4927354;29;20427;-81
2023/03/02 09:15:50;;;;;;;84.38;30.88;;;;;;;;;;4931836;29;20431;-82
2023/03/02 09:18:16;;;;;;;74.07;31.23;;;;;;;;;;4916979;29;20451;-82
2023/03/02 09:20:42;;;;;;;94.47;30.90;;;;;;;;;;4926109;29;20452;-83
2023/03/02 09:23:09;;;;;;;68.43;29.30;;;;;;;;;;4921587;29;20519;-83
2023/03/02 09:25:36;;;;;;;57.95;27.88;;;;;;;;;;4917884;29;20439;-83
2023/03/02 09:28:02;;;;;;;54.00;27.92;;;;;;;;;;4916260;29;20459;-83
2023/03/02 09:30:28;;;;;;;55.95;29.50;;;;;;;;;;4929682;29;20446;-83
2023/03/02 09:32:54;;;;;;;50.05;26.67;;;;;;;;;;4931066;29;20527;-83
2023/03/02 09:35:20;;;;;;;54.72;27.67;;;;;;;;;;4913832;29;20463;-82
2023/03/02 09:37:46;;;;;;;60.55;28.52;;;;;;;;;;4902948;29;20444;-83
2023/03/02 09:40:16;;;;;;;61.67;29.50;;;;;;;;;;4928328;29;20437;-83
2023/03/02 09:42:49;;;;;;;55.00;27.73;;;;;;;;;;4921934;29;20792;-82
2023/03/02 09:45:18;;;;;;;53.85;27.50;;;;;;;;;;4917180;29;20427;-83
2023/03/02 09:47:55;;;;;;;49.75;26.08;;;;;;;;;;4913136;29;20439;-83
2023/03/02 09:50:31;;;;;;;42.77;23.93;;;;;;;;;;4932376;29;20530;-83
2023/03/02 09:53:00;;;;;;;40.70;23.20;;;;;;;;;;4914940;29;20443;-83
2023/03/02 09:55:28;;;;;;;38.72;22.38;;;;;;;;;;4913654;29;20447;-83
2023/03/02 09:57:55;;;;;;;39.05;22.60;;;;;;;;;;4912412;29;20441;-83
2023/03/02 10:00:27;;;;;;;35.50;21.67;;;;;;;;;;4926430;29;20796;-83
2023/03/02 10:02:55;;;;;;;37.38;21.95;;;;;;;;;;4929686;29;20451;-82
2023/03/02 10:05:23;;;;;;;38.00;22.35;;;;;;;;;;4929186;29;20440;-83
2023/03/02 10:07:49;;;;;;;37.30;21.35;;;;;;;;;;4931516;29;20434;-83
2023/03/02 10:10:22;;;;;;;37.33;22.52;;;;;;;;;;4931192;29;20427;-83
2023/03/02 10:13:15;;;;;;;37.00;21.95;;;;;;;;;;4929471;29;20426;-83
2023/03/02 10:15:48;;;;;;;38.20;22.35;;;;;;;;;;4924653;29;20432;-83
2023/03/02 10:18:21;;;;;;;35.00;21.27;;;;;;;;;;4916936;29;20485;-83
2023/03/02 10:20:50;;;;;;;36.97;22.50;;;;;;;;;;4946932;29;20435;-83
2023/03/02 10:23:46;;;;;;;35.35;21.55;;;;;;;;;;4909404;29;20435;-84
2023/03/02 10:26:18;;;;;;;38.10;22.55;;;;;;;;;;4915306;29;20475;-83
2023/03/02 10:28:50;;;;;;;35.85;21.92;;;;;;;;;;4925906;29;20961;-83
2023/03/02 10:31:27;;;;;;;34.67;20.90;;;;;;;;;;4936402;29;20446;-83
2023/03/02 10:33:53;;;;;;;34.05;20.50;;;;;;;;;;4935345;29;20931;-82
2023/03/02 10:36:23;;;;;;;33.00;20.40;;;;;;;;;;4918198;29;20413;-82
2023/03/02 10:38:49;;;;;;;37.03;21.50;;;;;;;;;;4902713;29;20515;-82
2023/03/02 10:41:19;;;;;;;33.65;21.52;;;;;;;;;;4935277;29;20431;-82
2023/03/02 10:43:47;;;;;;;34.78;21.15;;;;;;;;;;4931293;29;20928;-81
2023/03/02 10:46:13;;;;;;;32.67;20.35;;;5.30;99.90;;;;;;4935715;29;20443;-82
2023/03/02 10:48:52;;;;;;;32.70;20.17;;;;;;;;;;4918670;29;20768;-82
2023/03/02 10:51:21;;;;;;;29.70;19.25;;;;;;;;;;4935861;29;20508;-82
2023/03/02 10:53:47;;;;;;;30.73;18.90;;;;;;;;;;4928879;29;20452;-82
2023/03/02 10:56:18;;;;;;;29.23;18.42;;;;;;;;;;4910796;29;20449;-82
2023/03/02 10:58:44;;;;;;;30.75;18.90;;;;;;;;;;4928559;29;20435;-82
2023/03/02 11:01:17;;;;;;;29.90;18.83;;;;;;;;;;4916436;29;20590;-82
2023/03/02 11:03:54;;;;;;;30.02;18.42;;;;;;;;;;4934442;29;20431;-82
2023/03/02 11:06:24;;;;;;;28.83;18.73;;;;;;;;;;4934022;29;20431;-82
2023/03/02 11:09:00;;;;;;;31.70;18.95;;;;;;;;;;4935599;29;20474;-83
2023/03/02 11:11:27;;;;;;;28.92;18.73;;;;;;;;;;4932678;29;20447;-83
2023/03/02 11:13:55;;;;;;;30.60;19.08;;;;;;;;;;4934853;29;20800;-83
2023/03/02 11:16:21;;;;;;;29.35;18.30;;;;;;;;;;4930615;29;20435;-82
2023/03/02 11:18:50;;;;;;;28.58;18.25;;;;;;;;;;4918753;29;20435;-82
2023/03/02 11:21:20;;;;;;;27.75;17.42;;;;;;;;;;4935674;29;20431;-82
2023/03/02 11:23:49;;;;;;;27.40;16.88;;;;;;;;;;4918628;29;20506;-82
2023/03/02 11:26:15;;;;;;;26.60;16.63;;;;;;;;;;4909172;29;20431;-83
2023/03/02 11:28:41;;;;;;;25.98;16.25;;;;;;;;;;4931307;29;20423;-83
2023/03/02 11:31:15;;;;;;;24.85;15.85;;;;;;;;;;4931817;29;20477;-83
2023/03/02 11:33:52;;;;;;;26.92;17.00;;;5.20;99.90;;;;;;4928333;29;20518;-84
2023/03/02 11:36:20;;;;;;;26.00;16.55;;;;;;;;;;4948175;29;20820;-83
2023/03/02 11:38:47;;;;;;;23.95;15.85;;;;;;;;;;4916622;29;20937;-83
2023/03/02 11:41:26;;;;;;;24.13;15.77;;;;;;;;;;4931798;29;20503;-84
2023/03/02 11:44:07;;;;;;;24.60;15.40;;;;;;;;;;4926543;29;20932;-84
2023/03/02 11:46:33;;;;;;;25.73;15.13;;;;;;;;;;4940262;29;20566;-83
2023/03/02 11:49:03;;;;;;;25.43;14.40;;;;;;;;;;4933257;29;20425;-83
2023/03/02 11:51:32;;;;;;;25.70;15.37;;;;;;;;;;4918945;29;20514;-82
2023/03/02 11:54:04;;;;;;;26.40;16.13;;;;;;;;;;4927313;29;20426;-82
2023/03/02 11:56:33;;;;;;;24.42;15.23;;;;;;;;;;4919996;29;20416;-83
2023/03/02 11:59:03;;;;;;;25.17;15.38;;;;;;;;;;4934782;29;20439;-83
2023/03/02 12:01:30;;;;;;;24.35;15.25;;;;;;;;;;4926662;29;20500;-82
2023/03/02 12:04:06;;;;;;;23.88;14.32;;;;;;;;;;4935025;29;20423;-82
2023/03/02 12:06:36;;;;;;;23.02;14.63;;;;;;;;;;4913101;29;20494;-83
2023/03/02 12:09:33;;;;;;;23.40;15.10;;;;;;;;;;4918589;29;20486;-82
2023/03/02 12:12:17;;;;;;;24.90;14.63;;;;;;;;;;4924744;29;20803;-81
2023/03/02 12:14:43;;;;;;;22.73;14.15;;;;;;;;;;4928667;29;20446;-82
2023/03/02 12:17:24;;;;;;;23.95;14.82;;;;;;;;;;4932462;29;20431;-82
2023/03/02 12:19:52;;;;;;;24.88;14.73;;;;;;;;;;4924722;29;20432;-81
2023/03/02 12:22:26;;;;;;;22.17;13.80;;;;;;;;;;4930804;29;20471;-81
2023/03/02 12:24:59;;;;;;;21.02;12.75;;;;;;;;;;4934287;29;20934;-82
2023/03/02 12:27:26;;;;;;;21.80;13.40;;;8.20;99.90;;;;;;4933409;29;20432;-81
2023/03/02 12:29:55;;;;;;;18.92;12.25;;;;;;;;;;4918331;29;20520;-84
2023/03/02 12:32:27;;;;;;;20.17;12.68;;;;;;;;;;4928444;29;20788;-84
2023/03/02 12:34:59;;;;;;;20.65;12.55;;;8.70;99.90;;;;;;4932685;29;20461;-83
2023/03/02 12:37:27;;;;;;;19.55;12.18;;;;;;;;;;4931418;29;20911;-82
2023/03/02 12:40:02;;;;;;;20.40;12.77;;;;;;;;;;4923951;29;20921;-82
2023/03/02 12:42:51;;;;;;;17.60;11.73;;;8.90;99.90;;;;;;4925104;29;20427;-82
2023/03/02 12:45:17;;;;;;;18.50;11.88;;;;;;;;;;4904874;29;20425;-82
2023/03/02 12:47:44;;;;;;;17.50;11.25;;;;;;;;;;4912379;29;20488;-82
2023/03/02 12:50:20;;;;;;;15.30;11.02;;;9.00;99.90;;;;;;4911531;29;20449;-83
2023/03/02 12:52:57;;;;;;;16.45;10.98;;;;;;;;;;4903012;29;20440;-82
2023/03/02 12:55:23;;;;;;;16.27;10.80;;;;;;;;;;4915433;29;20439;-82
2023/03/02 12:57:57;;;;;;;16.60;10.98;;;;;;;;;;4925208;29;20430;-83
2023/03/02 13:00:29;;;;;;;14.77;10.15;;;9.10;99.90;;;;;;4932854;29;20442;-83
2023/03/02 13:02:56;;;;;;;16.80;10.73;;;;;;;;;;4914559;29;20428;-83
2023/03/02 13:05:25;;;;;;;14.25;10.25;;;9.10;99.90;;;;;;4933205;29;20502;-83
2023/03/02 13:08:01;;;;;;;14.15;9.60;;;;;;;;;;4925505;29;20439;-83
2023/03/02 13:10:27;;;;;;;14.85;10.10;;;;;;;;;;4923762;29;20423;-83
2023/03/02 13:12:53;;;;;;;14.70;9.90;;;;;;;;;;4915727;29;20453;-83
2023/03/02 13:15:19;;;;;;;15.23;10.32;;;;;;;;;;4899646;29;20498;-83
2023/03/02 13:17:52;;;;;;;15.17;10.33;;;;;;;;;;4918935;29;20439;-83
2023/03/02 13:20:18;;;;;;;15.38;10.25;;;;;;;;;;4931394;29;20564;-83
2023/03/02 13:22:44;;;;;;;16.45;10.98;;;;;;;;;;4907364;29;20429;-79
2023/03/02 13:25:27;;;;;;;15.90;11.05;;;;;;;;;;4916333;29;20428;-79
2023/03/02 13:28:06;;;;;;;15.00;10.93;;;;;;;;;;4930923;29;20476;-79
2023/03/02 13:30:33;;;;;;;16.57;10.93;;;;;;;;;;4914828;29;20488;-79
2023/03/02 13:33:05;;;;;;;16.60;10.93;;;;;;;;;;4928092;29;20440;-79
2023/03/02 13:35:32;;;;;;;16.38;11.05;;;;;;;;;;4933673;29;20844;-80
2023/03/02 13:38:01;;;;;;;16.20;11.40;;;;;;;;;;4923898;29;20439;-80
2023/03/02 13:40:30;;;;;;;17.27;11.13;;;;;;;;;;4913416;29;20432;-81
2023/03/02 13:42:56;;;;;;;15.37;10.40;;;;;;;;;;4915559;29;20873;-80
2023/03/02 13:45:24;;;;;;;15.77;10.90;;;;;;;;;;4928989;29;20506;-79
2023/03/02 13:47:50;;;;;;;16.60;10.75;;;;;;;;;;4930799;29;20755;-79
2023/03/02 13:50:24;;;;;;;15.48;10.15;;;;;;;;;;4910486;29;20435;-80
2023/03/02 13:52:51;;;;;;;16.23;11.15;;;;;;;;;;4925846;29;20467;-80
2023/03/02 13:55:18;;;;;;;15.63;10.40;;;;;;;;;;4916830;29;20970;-80
2023/03/02 13:57:45;;;;;;;16.10;10.73;;;;;;;;;;4928154;29;20441;-80
2023/03/02 14:00:14;;;;;;;16.45;10.25;;;;;;;;;;4933265;29;20435;-80
2023/03/02 14:02:44;;;;;;;19.00;12.37;;;;;;;;;;4915600;29;20937;-80
2023/03/02 14:05:17;;;;;;;17.63;12.02;;;;;;;;;;4930609;29;20434;-80
2023/03/02 14:07:45;;;;;;;18.42;12.27;;;;;;;;;;4933826;29;20407;-80
2023/03/02 14:10:12;;;;;;;17.67;12.30;;;;;;;;;;4934082;29;20446;-81
2023/03/02 14:12:40;;;;;;;19.15;11.63;;;;;;;;;;4933893;29;20492;-80
2023/03/02 14:15:06;;;;;;;18.60;12.13;;;;;;;;;;4933106;29;20407;-80
2023/03/02 14:17:33;;;;;;;18.75;12.07;;;;;;;;;;4932422;29;20936;-79